EGNR/CEG METAR and TAF weather

Enter ICAO airport designator
Station Type Date Time Source
EGNR METAR 2020/01/22 15:20 UTC NOAA

EGNR 221520Z 33007KT 7000 BKN004 09/08 Q1038


Station Type Date Time Source
EGNR Decoded METAR 2020/01/22 15:20 UTC NOAA

Hawarden, United Kingdom (EGNR) 53-10N 002-59W 0M
Jan 22, 2020 - 10:20 AM EST / 2020.01.22 1520 UTC
Wind: from the NNW (330 degrees) at 8 MPH (7 KT):0
Visibility: 4 mile(s):0
Sky conditions: mostly cloudy
Temperature: 48 F (9 C)
Dew Point: 46 F (8 C)
Relative Humidity: 93%
Pressure (altimeter): 30.65 in. Hg (1038 hPa)
ob: EGNR 221520Z 33007KT 7000 BKN004 09/08 Q1038
cycle: 15

Station Type Date Time Source
EGNR TAF 2016/01/23 12:00 UTC NOAA

TAF EGNR 231059Z 2312/2319 15009KT 9999 FEW020
BECMG 2316/2319 BKN014
TEMPO 2317/2319 6000 RA BKN008

Example: see airport list